createdAt,value
2023-01-08T00:00:32.157Z,8.37
2023-01-08T00:05:28.849Z,8.34
2023-01-08T00:10:28.046Z,8.30
2023-01-08T00:15:25.324Z,8.29
2023-01-08T00:20:21.968Z,8.25
2023-01-08T00:25:18.917Z,8.33
2023-01-08T00:30:15.817Z,8.27
2023-01-08T00:35:13.066Z,8.05
2023-01-08T00:40:12.283Z,7.99
2023-01-08T00:45:13.639Z,7.97
2023-01-08T00:50:10.601Z,7.84
2023-01-08T00:55:08.295Z,7.71
2023-01-08T01:00:06.319Z,7.89
2023-01-08T01:05:03.950Z,8.05
2023-01-08T01:10:00.556Z,8.13
2023-01-08T01:14:57.815Z,8.27
2023-01-08T01:19:55.750Z,8.16
2023-01-08T01:24:52.378Z,8.11
2023-01-08T01:29:48.955Z,7.90
2023-01-08T01:34:46.231Z,7.80
2023-01-08T01:39:43.132Z,7.59
2023-01-08T01:44:41.083Z,7.49
2023-01-08T01:49:38.689Z,7.42
2023-01-08T01:54:36.357Z,7.55
2023-01-08T01:59:33.930Z,7.52
2023-01-08T02:04:30.584Z,7.61
2023-01-08T02:09:33.448Z,7.35
2023-01-08T02:14:35.263Z,7.34
2023-01-08T02:19:38.277Z,7.43
2023-01-08T02:24:42.988Z,7.62
2023-01-08T02:29:40.794Z,7.60
2023-01-08T02:34:38.803Z,7.51
2023-01-08T02:39:45.702Z,7.60
2023-01-08T02:44:50.164Z,7.63
2023-01-08T02:49:47.040Z,7.65
2023-01-08T02:54:44.498Z,7.87
2023-01-08T02:59:43.128Z,7.68
2023-01-08T03:04:46.766Z,7.45
2023-01-08T03:09:43.501Z,7.27
2023-01-08T03:14:43.789Z,7.32
2023-01-08T03:19:42.701Z,7.36
2023-01-08T03:24:40.881Z,7.36
2023-01-08T03:29:39.575Z,7.38
2023-01-08T03:34:37.891Z,7.27
2023-01-08T03:39:38.155Z,7.12
2023-01-08T03:44:34.745Z,6.90
2023-01-08T03:49:31.624Z,6.77
2023-01-08T03:54:30.836Z,6.72
2023-01-08T03:59:28.161Z,6.67
2023-01-08T04:04:24.738Z,6.50
2023-01-08T04:09:21.361Z,6.69
2023-01-08T04:14:18.322Z,6.05
2023-01-08T04:19:15.601Z,6.34
2023-01-08T04:24:12.854Z,6.45
2023-01-08T04:29:09.710Z,6.36
2023-01-08T04:34:06.404Z,6.44
2023-01-08T04:39:03.766Z,6.68
2023-01-08T04:44:00.314Z,6.81
2023-01-08T04:48:56.880Z,6.97
2023-01-08T04:53:53.337Z,7.07
2023-01-08T04:58:51.553Z,7.12
2023-01-08T05:03:48.454Z,7.23
2023-01-08T05:08:45.104Z,6.67
2023-01-08T05:13:41.694Z,6.23
2023-01-08T05:18:39.061Z,5.37
2023-01-08T05:23:35.693Z,4.91
2023-01-08T05:28:32.915Z,5.01
2023-01-08T05:33:29.399Z,5.32
2023-01-08T05:38:26.616Z,5.51
2023-01-08T05:43:23.074Z,4.66
2023-01-08T05:48:19.640Z,4.86
2023-01-08T05:53:18.214Z,5.15
2023-01-08T05:58:18.522Z,4.70
2023-01-08T06:03:15.039Z,4.38
2023-01-08T06:08:11.609Z,4.40
2023-01-08T06:13:09.145Z,4.21
2023-01-08T06:18:06.554Z,3.67
2023-01-08T06:23:03.105Z,4.20
2023-01-08T06:27:59.725Z,3.95
2023-01-08T06:32:56.366Z,4.12
2023-01-08T06:37:54.921Z,4.36
2023-01-08T06:42:51.474Z,4.52
2023-01-08T06:47:48.130Z,4.80
2023-01-08T06:52:44.736Z,4.89
2023-01-08T06:57:42.054Z,5.05
2023-01-08T07:02:38.930Z,5.14
2023-01-08T07:07:35.638Z,5.44
2023-01-08T07:12:32.253Z,5.72
2023-01-08T07:17:31.072Z,5.96
2023-01-08T07:22:27.616Z,5.92
2023-01-08T07:27:24.347Z,5.82
2023-01-08T07:32:21.149Z,5.66
2023-01-08T07:37:18.450Z,5.87
2023-01-08T07:42:15.155Z,5.32
2023-01-08T07:47:11.732Z,4.80
2023-01-08T07:52:08.366Z,4.37
2023-01-08T07:57:05.590Z,4.49
2023-01-08T08:02:02.422Z,4.78
2023-01-08T08:06:59.303Z,5.01
2023-01-08T08:11:56.065Z,4.26
2023-01-08T08:16:53.382Z,4.20
2023-01-08T08:21:49.876Z,4.46
2023-01-08T08:26:46.492Z,4.67
2023-01-08T08:31:43.268Z,5.14
2023-01-08T08:36:40.693Z,5.22
2023-01-08T08:41:39.298Z,5.65
2023-01-08T08:46:35.885Z,5.35
2023-01-08T08:51:32.569Z,5.80
2023-01-08T08:56:29.857Z,5.50
2023-01-08T09:01:26.556Z,6.06
2023-01-08T09:06:24.580Z,6.35
2023-01-08T09:11:21.339Z,5.75
2023-01-08T09:16:18.639Z,5.47
2023-01-08T09:21:15.619Z,5.49
2023-01-08T09:26:12.269Z,5.42
2023-01-08T09:31:09.245Z,5.95
2023-01-08T09:36:11.900Z,5.94
2023-01-08T09:41:10.177Z,5.95
2023-01-08T09:46:08.389Z,6.14
2023-01-08T09:51:06.866Z,5.87
2023-01-08T09:56:10.946Z,5.90
2023-01-08T10:01:11.313Z,6.49
2023-01-08T10:06:09.008Z,6.19
2023-01-08T10:11:07.033Z,6.30
2023-01-08T10:16:08.259Z,6.86
2023-01-08T10:21:05.047Z,7.32
2023-01-08T10:26:02.681Z,7.24
2023-01-08T10:31:04.121Z,6.84
2023-01-08T10:36:02.372Z,7.25
2023-01-08T10:40:59.920Z,7.28
2023-01-08T10:45:58.685Z,6.97
2023-01-08T10:51:06.858Z,7.35
2023-01-08T10:56:07.427Z,7.27
2023-01-08T11:01:12.080Z,7.24
2023-01-08T11:06:13.590Z,7.31
2023-01-08T11:11:13.738Z,7.37
2023-01-08T11:16:10.462Z,7.50
2023-01-08T11:21:17.944Z,7.64
2023-01-08T11:26:19.778Z,7.66
2023-01-08T11:31:19.348Z,8.11
2023-01-08T11:36:20.782Z,8.62
2023-01-08T11:41:25.911Z,8.64
2023-01-08T11:46:29.311Z,8.47
2023-01-08T11:51:36.307Z,8.46
2023-01-08T11:56:41.780Z,8.99
2023-01-08T12:01:44.976Z,9.10
2023-01-08T12:06:44.931Z,9.27
2023-01-08T12:11:47.243Z,9.03
2023-01-08T12:16:52.351Z,9.40
2023-01-08T12:21:55.854Z,9.41
2023-01-08T12:26:58.489Z,9.16
2023-01-08T12:32:08.980Z,9.57
2023-01-08T12:37:08.111Z,9.40
2023-01-08T12:42:08.568Z,9.41
2023-01-08T12:47:07.083Z,9.12
2023-01-08T12:52:08.699Z,9.10
2023-01-08T12:57:11.193Z,9.14
2023-01-08T13:02:15.126Z,9.42
2023-01-08T13:07:16.548Z,9.49
2023-01-08T13:12:15.186Z,9.50
2023-01-08T13:17:17.301Z,9.72
2023-01-08T13:22:23.118Z,9.56
2023-01-08T13:27:27.706Z,9.62
2023-01-08T13:32:26.175Z,9.54
2023-01-08T13:37:27.709Z,9.85
2023-01-08T13:42:28.009Z,9.85
2023-01-08T13:47:27.777Z,9.70
2023-01-08T13:52:31.883Z,9.99
2023-01-08T13:57:34.078Z,9.70
2023-01-08T14:02:32.128Z,9.98
2023-01-08T14:07:30.089Z,10.06
2023-01-08T14:12:29.161Z,10.25
2023-01-08T14:17:29.397Z,10.11
2023-01-08T14:22:28.794Z,9.96
2023-01-08T14:27:29.054Z,10.15
2023-01-08T14:32:28.969Z,10.13
2023-01-08T14:37:25.595Z,9.96
2023-01-08T14:42:41.961Z,10.05
2023-01-08T14:47:42.759Z,10.10
2023-01-08T14:52:40.363Z,10.17
2023-01-08T14:57:37.023Z,10.13
2023-01-08T15:02:36.215Z,9.88
2023-01-08T15:07:33.553Z,9.96
2023-01-08T15:12:30.929Z,9.93
2023-01-08T15:17:28.543Z,9.86
2023-01-08T15:22:26.852Z,9.74
2023-01-08T15:27:24.835Z,9.55
2023-01-08T15:32:22.683Z,9.42
2023-01-08T15:37:19.428Z,9.47
2023-01-08T15:42:37.222Z,9.46
2023-01-08T15:47:34.783Z,9.46
2023-01-08T15:52:31.570Z,9.19
2023-01-08T15:57:29.716Z,9.08
2023-01-08T16:02:26.406Z,9.08
2023-01-08T16:07:25.059Z,9.18
2023-01-08T16:12:25.101Z,9.31
2023-01-08T16:17:21.867Z,8.99
2023-01-08T16:27:33.452Z,8.82
2023-01-08T16:32:31.047Z,8.70
2023-01-08T16:37:30.340Z,8.64
2023-01-08T16:42:26.943Z,8.68
2023-01-08T16:47:26.270Z,8.64
2023-01-08T16:52:23.010Z,8.75
2023-01-08T16:57:19.770Z,8.69
2023-01-08T17:02:16.635Z,8.50
2023-01-08T17:07:16.355Z,8.49
2023-01-08T17:12:21.625Z,8.33
2023-01-08T17:17:21.141Z,8.35
2023-01-08T17:22:25.063Z,8.37
2023-01-08T17:27:21.616Z,8.24
2023-01-08T17:32:18.523Z,8.27
2023-01-08T17:37:15.121Z,8.08
2023-01-08T17:42:25.016Z,7.97
2023-01-08T17:47:21.870Z,7.91
2023-01-08T17:52:18.598Z,7.80
2023-01-08T17:57:16.395Z,7.77
2023-01-08T18:02:15.923Z,7.62
2023-01-08T18:07:13.031Z,7.35
2023-01-08T18:12:09.742Z,7.69
2023-01-08T18:17:07.306Z,7.91
2023-01-08T18:22:04.034Z,7.84
2023-01-08T18:27:00.639Z,7.76
2023-01-08T18:31:57.388Z,7.74
2023-01-08T18:36:54.910Z,7.82
2023-01-08T18:42:10.375Z,7.75
2023-01-08T18:47:06.983Z,7.79
2023-01-08T18:52:04.561Z,7.70
2023-01-08T18:57:01.196Z,7.67
2023-01-08T19:01:57.943Z,7.48
2023-01-08T19:06:54.728Z,7.64
2023-01-08T19:11:51.991Z,7.65
2023-01-08T19:16:51.018Z,7.58
2023-01-08T19:21:47.857Z,7.68
2023-01-08T19:26:44.504Z,7.49
2023-01-08T19:31:41.959Z,7.30
2023-01-08T19:36:39.106Z,7.18
2023-01-08T19:41:54.142Z,6.96
2023-01-08T19:46:51.376Z,6.92
2023-01-08T19:51:47.983Z,7.14
2023-01-08T19:56:44.649Z,7.24
2023-01-08T20:01:42.859Z,7.29
2023-01-08T20:06:43.475Z,7.59
2023-01-08T20:11:40.093Z,7.57
2023-01-08T20:16:36.780Z,7.55
2023-01-08T20:21:33.837Z,7.61
2023-01-08T20:26:31.482Z,7.74
2023-01-08T20:31:30.387Z,7.24
2023-01-08T20:36:27.790Z,7.33
2023-01-08T20:41:25.851Z,7.29
2023-01-08T20:46:23.528Z,7.22
2023-01-08T20:51:20.182Z,7.09
2023-01-08T20:56:17.139Z,7.06
2023-01-08T21:01:15.127Z,7.14
2023-01-08T21:06:13.429Z,7.05
2023-01-08T21:11:10.489Z,6.44
2023-01-08T21:16:09.027Z,6.00
2023-01-08T21:21:06.667Z,5.41
2023-01-08T21:26:04.987Z,5.71
2023-01-08T21:31:03.994Z,5.78
2023-01-08T21:36:03.048Z,5.96
2023-01-08T21:40:59.752Z,5.77
2023-01-08T21:45:59.896Z,5.58
2023-01-08T21:50:56.556Z,5.31
2023-01-08T21:55:53.165Z,5.15
2023-01-08T22:00:49.744Z,4.95
2023-01-08T22:05:56.748Z,5.26
2023-01-08T22:10:53.691Z,5.68
2023-01-08T22:16:00.022Z,6.02
2023-01-08T22:20:59.935Z,6.17
2023-01-08T22:25:56.872Z,6.35
2023-01-08T22:30:53.405Z,6.28
2023-01-08T22:35:51.262Z,6.60
2023-01-08T22:40:48.568Z,6.49
2023-01-08T22:45:51.176Z,6.19
2023-01-08T22:50:47.811Z,6.23
2023-01-08T22:55:45.681Z,6.36
2023-01-08T23:00:43.077Z,6.56
2023-01-08T23:05:39.961Z,6.00
2023-01-08T23:10:36.613Z,5.62
2023-01-08T23:15:33.264Z,6.01
2023-01-08T23:20:33.582Z,6.14
2023-01-08T23:25:31.863Z,6.29
2023-01-08T23:30:30.967Z,6.36
2023-01-08T23:35:27.742Z,6.67
2023-01-08T23:40:25.018Z,6.94
2023-01-08T23:45:21.619Z,6.90
2023-01-08T23:50:18.209Z,7.05
2023-01-08T23:55:14.890Z,7.08
